createdAt,value
2023-01-23T00:01:36.609Z,19.45
2023-01-23T00:04:05.534Z,19.37
2023-01-23T00:06:33.523Z,19.55
2023-01-23T00:09:01.655Z,19.57
2023-01-23T00:11:31.054Z,19.43
2023-01-23T00:14:02.004Z,19.30
2023-01-23T00:16:32.461Z,19.61
2023-01-23T00:19:00.531Z,19.41
2023-01-23T00:21:30.171Z,19.61
2023-01-23T00:23:59.816Z,19.54
2023-01-23T00:26:30.355Z,19.59
2023-01-23T00:28:58.441Z,19.88
2023-01-23T00:31:30.650Z,19.72
2023-01-23T00:34:00.592Z,19.67
2023-01-23T00:36:31.393Z,19.76
2023-01-23T00:38:59.479Z,19.65
2023-01-23T00:41:27.756Z,19.73
2023-01-23T00:43:55.686Z,19.56
2023-01-23T00:46:24.097Z,19.72
2023-01-23T00:48:53.697Z,19.58
2023-01-23T00:51:22.053Z,19.82
2023-01-23T00:53:50.161Z,19.64
2023-01-23T00:56:18.277Z,19.69
2023-01-23T00:58:46.291Z,19.85
2023-01-23T01:01:15.170Z,19.65
2023-01-23T01:03:43.671Z,19.60
2023-01-23T01:06:13.429Z,19.57
2023-01-23T01:08:41.492Z,19.65
2023-01-23T01:11:10.134Z,19.63
2023-01-23T01:13:38.331Z,19.49
2023-01-23T01:16:07.639Z,19.52
2023-01-23T01:18:37.260Z,19.48
2023-01-23T01:21:08.222Z,19.40
2023-01-23T01:23:38.657Z,19.48
2023-01-23T01:26:07.652Z,19.66
2023-01-23T01:28:36.689Z,19.62
2023-01-23T01:31:07.763Z,19.55
2023-01-23T01:33:36.438Z,19.38
2023-01-23T01:36:05.129Z,19.68
2023-01-23T01:38:33.120Z,19.63
2023-01-23T01:41:02.461Z,19.65
2023-01-23T01:43:30.438Z,19.75
2023-01-23T01:46:10.269Z,19.82
2023-01-23T01:48:46.021Z,19.57
2023-01-23T01:51:20.960Z,19.76
2023-01-23T01:53:52.330Z,19.63
2023-01-23T01:56:22.224Z,19.80
2023-01-23T01:58:52.919Z,19.58
2023-01-23T02:01:21.308Z,19.60
2023-01-23T02:03:52.458Z,19.75
2023-01-23T02:06:21.255Z,19.64
2023-01-23T02:08:57.042Z,19.94
2023-01-23T02:11:26.637Z,19.92
2023-01-23T02:13:56.712Z,19.94
2023-01-23T02:16:29.398Z,19.72
2023-01-23T02:19:01.764Z,19.71
2023-01-23T02:21:30.374Z,19.92
2023-01-23T02:24:13.422Z,19.68
2023-01-23T02:26:45.969Z,19.56
2023-01-23T02:29:16.291Z,19.64
2023-01-23T02:31:53.714Z,19.89
2023-01-23T02:34:26.000Z,19.63
2023-01-23T02:36:58.751Z,19.56
2023-01-23T02:39:27.619Z,19.37
2023-01-23T02:42:00.675Z,19.45
2023-01-23T02:44:46.658Z,19.61
2023-01-23T02:47:16.498Z,19.74
2023-01-23T02:49:44.969Z,19.53
2023-01-23T02:52:12.994Z,19.60
2023-01-23T02:54:41.078Z,19.35
2023-01-23T02:57:11.109Z,19.63
2023-01-23T02:59:57.260Z,19.38
2023-01-23T03:02:27.034Z,19.39
2023-01-23T03:04:55.253Z,19.49
2023-01-23T03:07:23.274Z,19.45
2023-01-23T03:09:51.463Z,19.44
2023-01-23T03:12:20.830Z,19.60
2023-01-23T03:14:53.871Z,19.66
2023-01-23T03:17:22.294Z,19.43
2023-01-23T03:19:50.458Z,19.72
2023-01-23T03:22:18.673Z,19.63
2023-01-23T03:24:46.714Z,19.31
2023-01-23T03:27:14.711Z,19.42
2023-01-23T03:30:05.624Z,19.54
2023-01-23T03:32:33.755Z,19.69
2023-01-23T03:35:01.954Z,19.26
2023-01-23T03:37:30.266Z,19.25
2023-01-23T03:40:16.095Z,19.66
2023-01-23T03:42:44.568Z,19.78
2023-01-23T03:45:16.750Z,19.56
2023-01-23T03:47:44.839Z,19.37
2023-01-23T03:50:12.846Z,19.47
2023-01-23T03:52:41.234Z,19.37
2023-01-23T03:55:10.758Z,19.31
2023-01-23T03:57:39.595Z,19.38
2023-01-23T04:00:21.781Z,19.61
2023-01-23T04:02:57.109Z,19.29
2023-01-23T04:05:25.193Z,19.30
2023-01-23T04:07:53.163Z,19.11
2023-01-23T04:10:21.429Z,19.22
2023-01-23T04:12:54.551Z,19.42
2023-01-23T04:15:24.009Z,19.15
2023-01-23T04:17:54.340Z,19.36
2023-01-23T04:20:24.692Z,19.28
2023-01-23T04:22:53.597Z,19.21
2023-01-23T04:25:21.891Z,19.11
2023-01-23T04:27:49.917Z,19.21
2023-01-23T04:30:18.799Z,19.31
2023-01-23T04:32:48.877Z,19.22
2023-01-23T04:35:19.202Z,19.11
2023-01-23T04:37:47.175Z,19.39
2023-01-23T04:40:15.426Z,19.05
2023-01-23T04:42:56.691Z,19.39
2023-01-23T04:45:34.745Z,19.49
2023-01-23T04:48:23.024Z,18.96
2023-01-23T04:50:52.015Z,19.58
2023-01-23T04:53:20.312Z,19.17
2023-01-23T04:55:54.076Z,19.48
2023-01-23T04:58:22.181Z,19.40
2023-01-23T05:00:50.242Z,19.42
2023-01-23T05:03:24.831Z,19.36
2023-01-23T05:05:53.328Z,19.41
2023-01-23T05:08:22.431Z,19.61
2023-01-23T05:11:01.666Z,19.56
2023-01-23T05:13:29.655Z,19.36
2023-01-23T05:15:58.623Z,19.20
2023-01-23T05:18:28.145Z,19.16
2023-01-23T05:20:56.886Z,19.41
2023-01-23T05:23:24.933Z,19.44
2023-01-23T05:25:54.871Z,19.47
2023-01-23T05:28:25.150Z,19.13
2023-01-23T05:30:57.032Z,19.22
2023-01-23T05:33:41.187Z,19.17
2023-01-23T05:36:09.310Z,19.23
2023-01-23T05:38:37.552Z,19.05
2023-01-23T05:41:05.883Z,19.18
2023-01-23T05:43:52.993Z,18.96
2023-01-23T05:46:35.436Z,18.72
2023-01-23T05:49:05.013Z,19.15
2023-01-23T05:51:34.001Z,18.97
2023-01-23T05:54:03.404Z,18.84
2023-01-23T05:56:31.751Z,18.90
2023-01-23T05:59:18.069Z,18.94
2023-01-23T06:01:58.915Z,18.78
2023-01-23T06:04:48.249Z,18.71
2023-01-23T06:07:25.281Z,18.63
2023-01-23T06:09:56.942Z,19.05
2023-01-23T06:12:24.922Z,18.57
2023-01-23T06:14:52.922Z,19.00
2023-01-23T06:17:20.960Z,19.01
2023-01-23T06:19:50.611Z,18.79
2023-01-23T06:22:18.941Z,18.56
2023-01-23T06:25:04.287Z,18.46
2023-01-23T06:27:33.126Z,18.45
2023-01-23T06:30:05.488Z,19.01
2023-01-23T06:32:37.698Z,18.90
2023-01-23T06:35:09.212Z,18.95
2023-01-23T06:37:40.671Z,18.56
2023-01-23T06:40:13.299Z,18.83
2023-01-23T06:42:45.637Z,19.07
2023-01-23T06:45:13.661Z,18.66
2023-01-23T06:47:41.603Z,18.81
2023-01-23T06:50:12.198Z,18.81
2023-01-23T06:52:40.672Z,18.76
2023-01-23T06:55:09.882Z,19.08
2023-01-23T06:57:38.974Z,18.93
2023-01-23T07:00:11.284Z,18.76
2023-01-23T07:02:40.388Z,18.88
2023-01-23T07:05:08.792Z,18.67
2023-01-23T07:07:38.252Z,18.90
2023-01-23T07:10:07.309Z,18.68
2023-01-23T07:12:35.485Z,18.96
2023-01-23T07:15:03.514Z,18.84
2023-01-23T07:17:38.679Z,18.67
2023-01-23T07:20:07.999Z,18.84
2023-01-23T07:22:43.091Z,18.44
2023-01-23T07:25:11.466Z,18.69
2023-01-23T07:27:39.506Z,18.67
2023-01-23T07:30:08.880Z,18.63
2023-01-23T07:32:37.006Z,18.58
2023-01-23T07:35:05.655Z,18.46
2023-01-23T07:37:33.786Z,18.71
2023-01-23T07:40:03.719Z,18.64
2023-01-23T07:42:31.745Z,18.94
2023-01-23T07:44:59.732Z,19.08
2023-01-23T07:47:27.749Z,18.61
2023-01-23T07:49:55.685Z,19.09
2023-01-23T07:52:23.698Z,18.90
2023-01-23T07:54:51.643Z,19.21
2023-01-23T07:57:21.141Z,19.63
2023-01-23T07:59:49.213Z,19.40
2023-01-23T08:02:17.146Z,19.46
2023-01-23T08:04:45.196Z,19.56
2023-01-23T08:07:13.379Z,19.77
2023-01-23T08:09:41.477Z,19.85
2023-01-23T08:12:09.594Z,19.89
2023-01-23T08:14:39.306Z,19.75
2023-01-23T08:17:07.318Z,19.82
2023-01-23T08:19:35.309Z,19.55
2023-01-23T08:22:03.281Z,19.50
2023-01-23T08:24:31.201Z,19.20
2023-01-23T08:26:59.747Z,19.24
2023-01-23T08:29:27.805Z,19.23
2023-01-23T08:31:57.306Z,19.29
2023-01-23T08:34:25.349Z,19.56
2023-01-23T08:36:53.397Z,19.26
2023-01-23T08:39:21.570Z,19.47
2023-01-23T08:41:49.643Z,19.33
2023-01-23T08:44:17.940Z,18.81
2023-01-23T08:46:47.548Z,18.95
2023-01-23T08:49:19.587Z,18.90
2023-01-23T08:51:47.620Z,18.87
2023-01-23T08:54:15.646Z,18.73
2023-01-23T08:56:43.590Z,19.01
2023-01-23T08:59:11.509Z,19.11
2023-01-23T09:01:39.570Z,18.52
2023-01-23T09:04:07.485Z,18.74
2023-01-23T09:06:37.274Z,18.42
2023-01-23T09:09:05.353Z,18.74
2023-01-23T09:11:33.309Z,18.39
2023-01-23T09:14:01.326Z,18.57
2023-01-23T09:16:29.400Z,18.47
2023-01-23T09:18:57.543Z,18.36
2023-01-23T09:21:25.494Z,18.43
2023-01-23T09:23:54.927Z,18.28
2023-01-23T09:26:22.817Z,18.41
2023-01-23T09:28:50.695Z,18.42
2023-01-23T09:31:18.835Z,18.15
2023-01-23T09:33:46.789Z,17.87
2023-01-23T09:36:14.747Z,18.06
2023-01-23T09:38:42.650Z,18.08
2023-01-23T09:41:20.204Z,18.16
2023-01-23T09:43:54.960Z,18.27
2023-01-23T09:46:27.526Z,18.56
2023-01-23T09:49:00.934Z,18.28
2023-01-23T09:51:36.550Z,18.44
2023-01-23T09:54:17.162Z,18.43
2023-01-23T09:56:50.370Z,18.19
2023-01-23T09:59:28.982Z,18.03
2023-01-23T10:01:57.657Z,18.32
2023-01-23T10:04:25.733Z,18.11
2023-01-23T10:07:19.463Z,18.03
2023-01-23T10:10:15.227Z,18.08
2023-01-23T10:12:54.937Z,18.01
2023-01-23T10:15:34.433Z,18.00
2023-01-23T10:18:14.381Z,18.17
2023-01-23T10:20:52.274Z,18.12
2023-01-23T10:23:42.713Z,18.32
2023-01-23T10:26:16.620Z,18.32
2023-01-23T10:28:48.498Z,18.56
2023-01-23T10:31:31.808Z,18.60
2023-01-23T10:34:11.715Z,18.57
2023-01-23T10:36:54.828Z,18.74
2023-01-23T10:39:28.005Z,19.04
2023-01-23T10:42:02.078Z,18.85
2023-01-23T10:44:31.999Z,18.89
2023-01-23T10:47:03.763Z,18.74
2023-01-23T10:49:35.261Z,19.04
2023-01-23T10:52:03.572Z,18.74
2023-01-23T10:54:33.314Z,18.68
2023-01-23T10:57:03.259Z,18.30
2023-01-23T10:59:36.714Z,18.31
2023-01-23T11:02:20.203Z,18.19
2023-01-23T11:04:51.725Z,18.24
2023-01-23T11:07:21.739Z,17.89
2023-01-23T11:09:53.608Z,17.88
2023-01-23T11:12:23.820Z,17.77
2023-01-23T11:15:11.725Z,17.71
2023-01-23T11:17:40.567Z,17.77
2023-01-23T11:20:24.359Z,17.72
2023-01-23T11:23:03.125Z,17.75
2023-01-23T11:25:32.699Z,17.63
2023-01-23T11:28:02.524Z,17.53
2023-01-23T11:30:39.587Z,17.52
2023-01-23T11:33:15.509Z,17.38
2023-01-23T11:36:00.300Z,17.67
2023-01-23T11:38:37.730Z,17.45
2023-01-23T11:41:13.108Z,17.45
2023-01-23T11:43:41.664Z,17.51
2023-01-23T11:46:30.814Z,17.41
2023-01-23T11:49:28.289Z,17.39
2023-01-23T11:52:11.320Z,17.44
2023-01-23T11:54:52.871Z,17.38
2023-01-23T11:57:36.725Z,17.46
2023-01-23T12:00:23.620Z,17.50
2023-01-23T12:03:24.875Z,17.35
2023-01-23T12:06:19.273Z,17.41
2023-01-23T12:08:54.775Z,17.37
2023-01-23T12:11:25.583Z,17.60
2023-01-23T12:14:03.525Z,17.15
2023-01-23T12:16:48.089Z,17.47
2023-01-23T12:19:30.801Z,17.21
2023-01-23T12:22:08.148Z,17.21
2023-01-23T12:24:50.096Z,17.48
2023-01-23T12:27:26.904Z,17.30
2023-01-23T12:30:23.968Z,17.45
2023-01-23T12:33:11.694Z,17.36
2023-01-23T12:35:52.571Z,17.57
2023-01-23T12:38:30.435Z,17.28
2023-01-23T12:41:13.089Z,17.12
2023-01-23T12:43:48.065Z,17.33
2023-01-23T12:46:23.445Z,17.90
2023-01-23T12:48:59.870Z,18.26
2023-01-23T12:51:37.902Z,19.43
2023-01-23T12:54:12.911Z,19.15
2023-01-23T12:56:41.914Z,19.15
2023-01-23T12:59:19.019Z,18.78
2023-01-23T13:02:01.904Z,18.90
2023-01-23T13:04:50.271Z,19.00
2023-01-23T13:07:41.992Z,18.58
2023-01-23T13:11:11.330Z,18.87
2023-01-23T13:13:39.571Z,18.77
2023-01-23T13:16:13.373Z,18.44
2023-01-23T13:18:59.658Z,18.84
2023-01-23T13:21:45.511Z,18.34
2023-01-23T13:24:50.979Z,18.35
2023-01-23T13:27:52.935Z,18.31
2023-01-23T13:30:43.127Z,18.31
2023-01-23T13:33:55.300Z,18.29
2023-01-23T13:36:33.130Z,18.38
2023-01-23T13:39:25.718Z,18.18
2023-01-23T13:42:45.871Z,18.25
2023-01-23T13:45:27.074Z,18.34
2023-01-23T14:21:22.110Z,18.87
2023-01-23T14:23:53.651Z,19.11
2023-01-23T14:26:25.774Z,19.21
2023-01-23T14:28:55.484Z,19.61
2023-01-23T14:31:27.632Z,19.58
2023-01-23T14:34:09.809Z,19.65
2023-01-23T14:36:39.483Z,19.94
2023-01-23T14:39:07.613Z,20.03
2023-01-23T14:41:41.597Z,20.03
2023-01-23T14:44:18.612Z,20.44
2023-01-23T14:46:51.949Z,20.33
2023-01-23T14:49:27.066Z,20.26
2023-01-23T14:52:00.252Z,20.50
2023-01-23T14:54:32.885Z,20.57
2023-01-23T14:57:04.537Z,20.60
2023-01-23T14:59:35.076Z,20.68
2023-01-23T15:02:23.795Z,20.85
2023-01-23T15:05:25.138Z,20.83
2023-01-23T15:07:56.043Z,20.90
2023-01-23T15:10:26.912Z,20.86
2023-01-23T15:12:58.473Z,21.08
2023-01-23T15:15:27.582Z,21.15
2023-01-23T15:18:00.523Z,21.23
2023-01-23T15:20:32.279Z,21.28
2023-01-23T15:23:22.004Z,20.92
2023-01-23T15:26:00.849Z,20.77
2023-01-23T15:28:40.442Z,20.53
2023-01-23T15:31:24.447Z,20.46
2023-01-23T15:33:54.197Z,20.24
2023-01-23T15:36:27.897Z,20.28
2023-01-23T15:38:57.705Z,20.17
2023-01-23T15:41:39.951Z,20.03
2023-01-23T15:44:14.907Z,19.99
2023-01-23T15:46:43.509Z,20.00
2023-01-23T15:49:24.316Z,20.22
2023-01-23T15:51:53.109Z,20.03
2023-01-23T15:54:25.634Z,20.02
2023-01-23T15:57:05.644Z,19.88
2023-01-23T15:59:35.245Z,19.78
2023-01-23T16:02:03.304Z,19.67
2023-01-23T16:04:32.826Z,19.67
2023-01-23T16:07:04.437Z,20.13
2023-01-23T16:09:34.804Z,20.10
2023-01-23T16:12:02.901Z,19.88
2023-01-23T16:14:30.928Z,19.84
2023-01-23T16:17:08.119Z,19.84
2023-01-23T16:19:45.804Z,19.89
2023-01-23T16:22:18.079Z,19.78
2023-01-23T16:24:46.159Z,19.77
2023-01-23T16:27:19.235Z,19.47
2023-01-23T16:29:49.599Z,19.82
2023-01-23T16:32:17.848Z,19.61
2023-01-23T16:34:47.301Z,19.62
2023-01-23T16:37:17.285Z,19.33
2023-01-23T16:39:48.311Z,19.48
2023-01-23T16:42:22.927Z,19.31
2023-01-23T16:44:51.751Z,19.51
2023-01-23T16:47:20.325Z,19.46
2023-01-23T16:49:53.080Z,19.37
2023-01-23T16:52:23.403Z,19.37
2023-01-23T16:54:53.434Z,19.59
2023-01-23T16:57:22.315Z,19.47
2023-01-23T16:59:51.047Z,19.44
2023-01-23T17:02:23.129Z,19.42
2023-01-23T17:04:52.856Z,19.64
2023-01-23T17:07:21.279Z,19.69
2023-01-23T17:09:50.236Z,19.23
2023-01-23T17:12:22.017Z,19.56
2023-01-23T17:14:52.618Z,19.17
2023-01-23T17:17:26.333Z,19.20
2023-01-23T17:19:56.927Z,19.26
2023-01-23T17:22:27.280Z,19.25
2023-01-23T17:24:55.307Z,19.08
2023-01-23T17:27:23.531Z,19.47
2023-01-23T17:29:51.522Z,19.33
2023-01-23T17:32:26.637Z,19.41
2023-01-23T17:34:56.298Z,19.38
2023-01-23T17:37:24.828Z,19.47
2023-01-23T17:39:53.010Z,19.51
2023-01-23T17:42:21.997Z,19.42
2023-01-23T17:44:50.582Z,19.62
2023-01-23T17:47:19.243Z,19.38
2023-01-23T17:49:51.179Z,19.55
2023-01-23T17:52:21.744Z,19.43
2023-01-23T17:54:49.887Z,19.35
2023-01-23T17:57:17.895Z,19.43
2023-01-23T17:59:45.893Z,19.40
2023-01-23T18:02:26.614Z,19.50
2023-01-23T18:04:55.018Z,19.32
2023-01-23T18:07:24.308Z,19.28
2023-01-23T18:09:53.980Z,19.25
2023-01-23T18:12:30.123Z,19.22
2023-01-23T18:15:07.428Z,19.14
2023-01-23T18:17:45.025Z,19.00
2023-01-23T18:20:18.785Z,19.15
2023-01-23T18:22:48.987Z,19.19
2023-01-23T18:25:18.998Z,19.15
2023-01-23T18:27:50.994Z,19.23
2023-01-23T18:30:27.019Z,19.23
2023-01-23T18:33:07.174Z,19.05
2023-01-23T18:35:58.070Z,19.09
2023-01-23T18:38:37.608Z,19.17
2023-01-23T18:41:17.174Z,19.21
2023-01-23T18:43:51.369Z,19.20
2023-01-23T18:46:25.275Z,19.14
2023-01-23T18:48:53.962Z,19.02
2023-01-23T18:51:32.865Z,19.07
2023-01-23T18:54:13.305Z,19.00
2023-01-23T18:56:51.462Z,18.99
2023-01-23T18:59:23.926Z,18.98
2023-01-23T19:01:54.864Z,18.95
2023-01-23T19:04:31.778Z,18.94
2023-01-23T19:07:00.317Z,18.98
2023-01-23T19:09:34.538Z,18.87
2023-01-23T19:12:20.505Z,18.91
2023-01-23T19:15:07.835Z,18.84
2023-01-23T19:17:43.931Z,18.93
2023-01-23T19:20:23.201Z,18.63
2023-01-23T19:23:02.858Z,18.77
2023-01-23T19:25:32.630Z,18.86
2023-01-23T19:28:01.839Z,18.78
2023-01-23T19:30:30.728Z,18.80
2023-01-23T19:32:58.688Z,18.87
2023-01-23T19:35:26.983Z,18.91
2023-01-23T19:37:55.092Z,18.67
2023-01-23T19:40:23.115Z,18.80
2023-01-23T19:43:08.870Z,18.89
2023-01-23T19:45:41.407Z,18.79
2023-01-23T19:48:09.768Z,18.72
2023-01-23T19:50:37.983Z,18.84
2023-01-23T19:53:06.221Z,18.74
2023-01-23T19:55:36.257Z,18.80
2023-01-23T19:58:05.979Z,18.92
2023-01-23T20:00:36.206Z,18.88
2023-01-23T20:03:05.398Z,18.98
2023-01-23T20:05:33.563Z,18.88
2023-01-23T20:08:01.491Z,18.94
2023-01-23T20:10:29.660Z,18.78
2023-01-23T20:12:57.785Z,18.96
2023-01-23T20:15:27.633Z,18.95
2023-01-23T20:17:55.874Z,19.18
2023-01-23T20:20:24.214Z,18.92
2023-01-23T20:22:52.645Z,18.80
2023-01-23T20:25:21.279Z,18.82
2023-01-23T20:27:49.584Z,18.90
2023-01-23T20:30:20.264Z,18.84
2023-01-23T20:32:50.113Z,18.85
2023-01-23T20:35:18.208Z,18.95
2023-01-23T20:37:46.254Z,18.85
2023-01-23T20:40:14.564Z,18.76
2023-01-23T20:42:42.529Z,18.75
2023-01-23T20:45:11.279Z,18.86
2023-01-23T20:47:39.417Z,18.77
2023-01-23T20:50:09.967Z,18.78
2023-01-23T20:52:55.368Z,18.74
2023-01-23T20:55:23.604Z,18.93
2023-01-23T20:58:09.244Z,18.85
2023-01-23T21:00:37.260Z,18.84
2023-01-23T21:03:05.346Z,18.96
2023-01-23T21:05:34.652Z,18.82
2023-01-23T21:08:02.832Z,18.87
2023-01-23T21:10:30.905Z,18.92
2023-01-23T21:12:58.911Z,18.83
2023-01-23T21:15:27.082Z,18.85
2023-01-23T21:17:55.022Z,18.81
2023-01-23T21:20:22.996Z,18.87
2023-01-23T21:22:52.392Z,18.90
2023-01-23T21:25:20.769Z,18.85
2023-01-23T21:27:49.017Z,19.08
2023-01-23T21:30:17.425Z,19.04
2023-01-23T21:32:45.446Z,18.97
2023-01-23T21:35:13.534Z,18.91
2023-01-23T21:37:43.515Z,18.96
2023-01-23T21:40:14.450Z,18.86
2023-01-23T21:42:42.543Z,18.94
2023-01-23T21:45:11.183Z,18.88
2023-01-23T21:47:39.205Z,18.91
2023-01-23T21:50:07.965Z,18.94
2023-01-23T21:52:36.012Z,19.00
2023-01-23T21:55:04.077Z,18.83
2023-01-23T21:57:33.497Z,18.83
2023-01-23T22:00:18.638Z,18.87
2023-01-23T22:02:46.677Z,18.84
2023-01-23T22:05:14.893Z,18.92
2023-01-23T22:07:43.202Z,18.99
2023-01-23T22:10:12.064Z,18.92
2023-01-23T22:12:41.552Z,18.79
2023-01-23T22:15:10.595Z,18.90
2023-01-23T22:17:38.648Z,18.83
2023-01-23T22:20:07.826Z,18.71
2023-01-23T22:22:35.738Z,18.96
2023-01-23T22:25:03.870Z,18.91
2023-01-23T22:27:31.850Z,18.99
2023-01-23T22:30:01.233Z,18.72
2023-01-23T22:32:29.345Z,18.88
2023-01-23T22:34:57.302Z,19.01
2023-01-23T22:37:25.275Z,18.97
2023-01-23T22:39:53.281Z,19.04
2023-01-23T22:42:21.217Z,19.02
2023-01-23T22:44:49.129Z,19.10
2023-01-23T22:47:18.489Z,19.12
2023-01-23T22:49:46.464Z,19.20
2023-01-23T22:52:15.002Z,19.28
2023-01-23T22:54:43.016Z,19.38
2023-01-23T22:57:11.033Z,19.27
2023-01-23T22:59:39.232Z,19.20
2023-01-23T23:02:07.499Z,19.17
2023-01-23T23:04:36.795Z,19.32
2023-01-23T23:07:04.897Z,19.44
2023-01-23T23:09:32.836Z,19.16
2023-01-23T23:12:00.852Z,19.39
2023-01-23T23:14:28.865Z,19.33
2023-01-23T23:16:56.814Z,19.29
2023-01-23T23:19:24.710Z,19.26
2023-01-23T23:21:54.124Z,19.53
2023-01-23T23:24:22.449Z,19.45
2023-01-23T23:26:51.391Z,19.30
2023-01-23T23:29:19.396Z,19.34
2023-01-23T23:31:51.509Z,19.22
2023-01-23T23:34:19.678Z,19.35
2023-01-23T23:36:48.010Z,19.42
2023-01-23T23:39:17.584Z,19.63
2023-01-23T23:41:45.546Z,19.33
2023-01-23T23:44:13.544Z,19.22
2023-01-23T23:46:41.556Z,19.07
2023-01-23T23:49:09.442Z,19.21
2023-01-23T23:51:37.526Z,19.47
2023-01-23T23:54:05.562Z,19.34
2023-01-23T23:56:34.967Z,19.34
2023-01-23T23:59:03.077Z,19.31
